createdAt,value
2022-12-11T00:00:42.306Z,7.30
2022-12-11T00:03:29.783Z,8.10
2022-12-11T00:05:57.417Z,8.60
2022-12-11T00:08:24.943Z,7.30
2022-12-11T00:10:52.512Z,6.40
2022-12-11T00:13:20.026Z,6.20
2022-12-11T00:15:47.507Z,6.60
2022-12-11T00:18:15.080Z,7.60
2022-12-11T00:20:42.946Z,6.80
2022-12-11T00:23:12.013Z,6.60
2022-12-11T00:25:47.253Z,6.70
2022-12-11T00:28:18.834Z,8.20
2022-12-11T00:30:47.182Z,8.30
2022-12-11T00:33:15.216Z,6.40
2022-12-11T00:35:45.727Z,6.60
2022-12-11T00:38:20.525Z,6.60
2022-12-11T00:40:49.109Z,6.50
2022-12-11T00:43:17.146Z,6.90
2022-12-11T00:45:47.068Z,6.40
2022-12-11T00:48:14.884Z,7.00
2022-12-11T00:50:42.763Z,8.00
2022-12-11T00:53:10.307Z,6.90
2022-12-11T00:55:40.644Z,6.40
2022-12-11T00:58:09.214Z,6.70
2022-12-11T01:00:37.638Z,6.50
2022-12-11T01:03:06.328Z,9.60
2022-12-11T01:05:34.050Z,7.80
2022-12-11T01:08:02.280Z,7.20
2022-12-11T01:10:29.965Z,7.40
2022-12-11T01:13:00.964Z,6.50
2022-12-11T01:15:31.425Z,7.90
2022-12-11T01:17:59.313Z,6.30
2022-12-11T01:20:28.019Z,7.00
2022-12-11T01:22:57.761Z,6.70
2022-12-11T01:25:26.808Z,11.20
2022-12-11T01:27:55.799Z,8.10
2022-12-11T01:30:25.606Z,6.50
2022-12-11T01:32:53.215Z,6.90
2022-12-11T01:35:21.012Z,7.90
2022-12-11T01:37:49.365Z,6.70
2022-12-11T01:40:18.987Z,6.50
2022-12-11T01:42:46.665Z,6.70
2022-12-11T01:45:32.261Z,5.90
2022-12-11T01:48:02.224Z,6.10
2022-12-11T01:50:32.368Z,5.90
2022-12-11T01:53:00.217Z,6.90
2022-12-11T01:55:28.159Z,7.60
2022-12-11T01:57:55.793Z,8.50
2022-12-11T02:00:23.386Z,7.80
2022-12-11T02:02:50.966Z,7.10
2022-12-11T02:05:18.548Z,7.30
2022-12-11T02:07:54.275Z,6.40
2022-12-11T02:10:28.223Z,6.20
2022-12-11T02:13:05.050Z,6.00
2022-12-11T02:16:05.700Z,6.20
2022-12-11T02:18:52.661Z,6.80
2022-12-11T02:21:28.389Z,7.00
2022-12-11T02:24:05.766Z,6.60
2022-12-11T02:26:52.016Z,6.80
2022-12-11T02:29:26.117Z,6.20
2022-12-11T02:32:02.456Z,6.70
2022-12-11T02:34:37.503Z,6.00
2022-12-11T02:37:10.606Z,6.80
2022-12-11T02:39:41.521Z,6.10
2022-12-11T02:42:11.323Z,6.20
2022-12-11T02:44:40.862Z,6.70
2022-12-11T02:47:12.800Z,9.80
2022-12-11T02:49:44.355Z,7.90
2022-12-11T02:52:14.670Z,9.60
2022-12-11T02:54:44.720Z,6.80
2022-12-11T02:57:17.060Z,6.40
2022-12-11T02:59:46.410Z,6.40
2022-12-11T03:02:17.057Z,8.10
2022-12-11T03:04:47.549Z,5.80
2022-12-11T03:07:23.287Z,6.90
2022-12-11T03:09:51.939Z,7.10
2022-12-11T03:12:25.949Z,6.20
2022-12-11T03:14:53.896Z,5.20
2022-12-11T03:17:25.378Z,5.50
2022-12-11T03:20:15.956Z,6.70
2022-12-11T03:23:05.303Z,7.80
2022-12-11T03:25:43.672Z,5.90
2022-12-11T03:28:19.419Z,5.10
2022-12-11T03:30:51.324Z,5.80
2022-12-11T03:33:35.629Z,6.50
2022-12-11T03:36:12.525Z,6.00
2022-12-11T03:39:01.773Z,6.00
2022-12-11T03:41:32.995Z,5.70
2022-12-11T03:44:01.323Z,6.70
2022-12-11T03:46:36.815Z,6.60
2022-12-11T03:49:13.078Z,6.50
2022-12-11T03:51:42.296Z,5.80
2022-12-11T03:54:11.464Z,6.80
2022-12-11T03:56:43.132Z,5.20
2022-12-11T03:59:10.877Z,6.50
2022-12-11T04:01:38.862Z,6.20
2022-12-11T04:04:06.422Z,6.70
2022-12-11T04:06:34.023Z,6.70
2022-12-11T04:09:01.548Z,6.70
2022-12-11T04:11:34.779Z,5.90
2022-12-11T04:14:29.942Z,6.80
2022-12-11T04:16:59.432Z,6.40
2022-12-11T04:19:43.472Z,6.80
2022-12-11T04:22:32.453Z,5.80
2022-12-11T04:25:05.306Z,7.60
2022-12-11T04:27:48.974Z,7.20
2022-12-11T04:30:23.057Z,7.00
2022-12-11T04:32:51.741Z,6.00
2022-12-11T04:35:20.328Z,5.80
2022-12-11T04:37:48.747Z,6.00
2022-12-11T04:40:18.629Z,6.20
2022-12-11T04:42:46.479Z,6.30
2022-12-11T04:45:14.463Z,6.30
2022-12-11T04:47:42.326Z,6.50
2022-12-11T04:50:14.303Z,6.40
2022-12-11T04:52:42.804Z,6.10
2022-12-11T04:55:11.716Z,6.60
2022-12-11T04:57:39.707Z,6.90
2022-12-11T05:00:10.361Z,6.70
2022-12-11T05:02:41.299Z,6.90
2022-12-11T05:05:11.182Z,5.90
2022-12-11T05:07:39.000Z,6.50
2022-12-11T05:10:07.545Z,6.40
2022-12-11T05:12:35.090Z,6.70
2022-12-11T05:15:02.710Z,7.00
2022-12-11T05:17:30.220Z,7.00
2022-12-11T05:19:57.685Z,5.90
2022-12-11T05:22:25.229Z,6.00
2022-12-11T05:24:52.727Z,5.50
2022-12-11T05:27:20.966Z,6.10
2022-12-11T05:29:48.486Z,6.00
2022-12-11T05:32:16.073Z,8.00
2022-12-11T05:34:43.839Z,6.90
2022-12-11T05:37:11.384Z,6.20
2022-12-11T05:39:39.253Z,7.70
2022-12-11T05:42:06.758Z,7.10
2022-12-11T05:44:34.602Z,8.30
2022-12-11T05:47:02.109Z,7.20
2022-12-11T05:49:31.125Z,6.70
2022-12-11T05:51:58.912Z,9.20
2022-12-11T05:54:26.385Z,8.10
2022-12-11T05:56:53.900Z,7.30
2022-12-11T05:59:21.572Z,6.20
2022-12-11T06:01:49.224Z,7.00
2022-12-11T06:04:16.869Z,8.20
2022-12-11T06:06:44.380Z,8.60
2022-12-11T06:09:15.484Z,7.70
2022-12-11T06:11:43.322Z,7.70
2022-12-11T06:14:11.661Z,7.50
2022-12-11T06:16:39.350Z,10.70
2022-12-11T06:19:07.127Z,8.00
2022-12-11T06:21:34.734Z,7.60
2022-12-11T06:24:03.813Z,7.20
2022-12-11T06:26:31.990Z,10.70
2022-12-11T06:28:59.658Z,8.50
2022-12-11T06:31:27.887Z,7.50
2022-12-11T06:33:55.765Z,7.80
2022-12-11T06:36:24.866Z,9.00
2022-12-11T06:38:55.301Z,10.00
2022-12-11T06:41:22.850Z,9.40
2022-12-11T06:43:50.826Z,8.20
2022-12-11T06:46:19.912Z,7.30
2022-12-11T06:48:50.545Z,9.00
2022-12-11T06:51:20.798Z,13.50
2022-12-11T06:53:53.363Z,7.00
2022-12-11T06:56:21.553Z,7.20
2022-12-11T06:58:49.748Z,5.10
2022-12-11T07:01:26.204Z,7.50
2022-12-11T07:03:58.767Z,6.10
2022-12-11T07:06:28.416Z,7.80
2022-12-11T07:08:56.825Z,9.80
2022-12-11T07:11:24.610Z,9.60
2022-12-11T07:13:52.165Z,7.70
2022-12-11T07:16:19.771Z,12.30
2022-12-11T07:18:50.043Z,8.80
2022-12-11T07:21:19.395Z,18.90
2022-12-11T07:23:47.853Z,8.20
2022-12-11T07:26:17.993Z,14.60
2022-12-11T07:28:45.934Z,15.00
2022-12-11T07:31:21.500Z,45.60
2022-12-11T07:33:57.077Z,84.50
2022-12-11T07:36:25.354Z,158.80
2022-12-11T07:38:53.811Z,50.10
2022-12-11T07:41:21.968Z,53.30
2022-12-11T07:43:49.598Z,31.10
2022-12-11T07:46:20.245Z,20.20
2022-12-11T07:48:48.841Z,8.60
2022-12-11T07:51:27.606Z,13.20
2022-12-11T07:54:01.356Z,31.30
2022-12-11T07:56:30.218Z,40.40
2022-12-11T07:59:02.236Z,60.20
2022-12-11T08:01:31.847Z,39.40
2022-12-11T08:03:59.459Z,45.70
2022-12-11T08:06:30.025Z,41.60
2022-12-11T08:08:59.850Z,30.70
2022-12-11T08:11:28.495Z,23.80
2022-12-11T08:13:56.385Z,31.40
2022-12-11T08:16:23.939Z,180.40
2022-12-11T08:18:51.875Z,163.60
2022-12-11T08:21:22.720Z,48.90
2022-12-11T08:23:51.776Z,16.20
2022-12-11T08:26:23.252Z,24.90
2022-12-11T08:28:51.027Z,23.00
2022-12-11T08:31:19.993Z,16.90
2022-12-11T08:33:48.558Z,14.20
2022-12-11T08:36:18.902Z,12.30
2022-12-11T08:38:47.128Z,10.50
2022-12-11T08:41:15.767Z,12.70
2022-12-11T08:43:44.618Z,9.20
2022-12-11T08:46:13.536Z,10.30
2022-12-11T08:48:42.739Z,7.80
2022-12-11T08:51:15.790Z,7.60
2022-12-11T08:53:44.276Z,6.70
2022-12-11T08:56:15.076Z,6.40
2022-12-11T08:58:43.772Z,7.10
2022-12-11T09:01:17.971Z,6.10
2022-12-11T09:03:45.541Z,41.30
2022-12-11T09:06:16.664Z,13.10
2022-12-11T09:08:51.674Z,9.60
2022-12-11T09:11:29.113Z,12.80
2022-12-11T09:13:58.934Z,9.20
2022-12-11T09:16:30.158Z,8.90
2022-12-11T09:18:59.091Z,8.30
2022-12-11T09:21:29.236Z,6.30
2022-12-11T09:23:59.894Z,9.40
2022-12-11T09:26:29.999Z,7.00
2022-12-11T09:28:58.435Z,9.40
2022-12-11T09:31:29.214Z,13.40
2022-12-11T09:33:59.496Z,11.90
2022-12-11T09:36:27.911Z,7.20
2022-12-11T09:38:56.124Z,10.50
2022-12-11T09:41:23.603Z,7.80
2022-12-11T09:44:14.390Z,9.90
2022-12-11T09:46:42.589Z,19.00
2022-12-11T09:49:42.525Z,13.50
2022-12-11T09:52:26.688Z,9.60
2022-12-11T09:55:14.922Z,15.00
2022-12-11T09:57:56.114Z,10.70
2022-12-11T10:00:32.139Z,8.60
2022-12-11T10:03:17.766Z,9.70
2022-12-11T10:05:57.337Z,15.70
2022-12-11T10:08:33.440Z,50.20
2022-12-11T10:11:40.256Z,13.80
2022-12-11T10:14:26.875Z,7.80
2022-12-11T10:17:02.079Z,15.60
2022-12-11T10:19:31.992Z,9.50
2022-12-11T10:22:01.438Z,16.40
2022-12-11T10:27:33.091Z,14.00
2022-12-11T10:30:34.501Z,8.90
2022-12-11T10:33:39.285Z,9.00
2022-12-11T10:36:09.132Z,6.80
2022-12-11T10:38:45.278Z,8.90
2022-12-11T10:41:17.358Z,7.90
2022-12-11T10:43:48.399Z,11.30
2022-12-11T10:46:19.281Z,12.50
2022-12-11T10:48:55.889Z,16.90
2022-12-11T10:51:40.464Z,8.10
2022-12-11T10:54:24.802Z,7.20
2022-12-11T10:56:53.956Z,6.60
2022-12-11T10:59:29.135Z,6.50
2022-12-11T11:01:58.040Z,7.20
2022-12-11T11:04:44.738Z,10.90
2022-12-11T11:07:18.087Z,13.70
2022-12-11T11:09:46.999Z,15.30
2022-12-11T11:12:27.570Z,11.50
2022-12-11T11:15:04.056Z,8.50
2022-12-11T11:17:35.468Z,10.00
2022-12-11T11:20:14.480Z,7.40
2022-12-11T11:22:47.428Z,36.80
2022-12-11T11:25:21.756Z,19.40
2022-12-11T11:28:19.469Z,28.50
2022-12-11T11:31:11.656Z,26.00
2022-12-11T11:33:50.969Z,29.90
2022-12-11T11:36:22.883Z,29.00
2022-12-11T11:39:07.373Z,17.70
2022-12-11T11:41:49.387Z,11.10
2022-12-11T11:44:25.371Z,12.90
2022-12-11T11:46:59.547Z,10.80
2022-12-11T11:49:59.035Z,13.60
2022-12-11T11:52:55.935Z,8.50
2022-12-11T11:55:37.760Z,11.10
2022-12-11T11:58:15.417Z,11.60
2022-12-11T12:00:43.584Z,11.80
2022-12-11T12:03:15.363Z,14.20
2022-12-11T12:05:57.580Z,10.40
2022-12-11T12:09:04.054Z,10.30
2022-12-11T12:11:47.639Z,9.80
2022-12-11T12:14:54.727Z,9.70
2022-12-11T12:17:39.037Z,7.10
2022-12-11T12:20:28.764Z,10.60
2022-12-11T12:23:02.645Z,14.80
2022-12-11T12:25:44.745Z,16.60
2022-12-11T12:28:45.134Z,8.50
2022-12-11T12:31:37.322Z,10.70
2022-12-11T12:34:05.167Z,10.10
2022-12-11T12:37:04.984Z,9.30
2022-12-11T12:39:35.681Z,8.90
2022-12-11T12:42:25.532Z,14.70
2022-12-11T12:45:16.491Z,27.60
2022-12-11T12:47:53.061Z,25.80
2022-12-11T12:50:26.696Z,14.40
2022-12-11T12:52:56.801Z,23.20
2022-12-11T12:55:29.017Z,40.00
2022-12-11T12:58:08.318Z,44.70
2022-12-11T13:00:42.295Z,29.00
2022-12-11T13:03:16.231Z,44.30
2022-12-11T13:05:55.415Z,15.60
2022-12-11T13:08:28.912Z,17.20
2022-12-11T13:11:07.185Z,15.90
2022-12-11T13:13:41.031Z,22.90
2022-12-11T13:16:25.179Z,31.00
2022-12-11T13:18:53.657Z,31.40
2022-12-11T13:21:40.085Z,49.10
2022-12-11T13:24:28.938Z,30.40
2022-12-11T13:26:56.920Z,14.50
2022-12-11T13:29:41.812Z,11.20
2022-12-11T13:32:09.494Z,9.90
2022-12-11T13:34:43.930Z,7.70
2022-12-11T13:37:32.959Z,14.90
2022-12-11T13:40:08.931Z,20.50
2022-12-11T13:42:47.700Z,33.20
2022-12-11T13:45:23.656Z,13.40
2022-12-11T13:47:51.459Z,14.30
2022-12-11T13:50:25.109Z,18.40
2022-12-11T13:52:58.177Z,8.20
2022-12-11T13:55:34.830Z,6.30
2022-12-11T13:58:02.660Z,7.30
2022-12-11T14:00:33.442Z,8.60
2022-12-11T14:03:07.475Z,8.20
2022-12-11T14:05:35.540Z,8.00
2022-12-11T14:08:10.315Z,8.50
2022-12-11T14:10:39.891Z,8.40
2022-12-11T14:13:20.567Z,12.30
2022-12-11T14:15:48.314Z,7.60
2022-12-11T14:18:24.774Z,8.00
2022-12-11T14:20:58.239Z,6.90
2022-12-11T14:23:29.835Z,11.10
2022-12-11T14:26:03.526Z,13.90
2022-12-11T14:28:38.181Z,16.90
2022-12-11T14:31:06.776Z,24.30
2022-12-11T14:33:43.733Z,41.30
2022-12-11T14:36:11.736Z,30.90
2022-12-11T14:38:55.636Z,33.90
2022-12-11T14:41:29.642Z,23.20
2022-12-11T14:44:00.536Z,37.30
2022-12-11T14:46:38.580Z,22.10
2022-12-11T14:49:17.729Z,18.50
2022-12-11T14:51:46.594Z,12.90
2022-12-11T14:54:43.255Z,11.80
2022-12-11T14:57:20.329Z,8.80
2022-12-11T14:59:50.698Z,7.50
2022-12-11T15:02:26.310Z,10.00
2022-12-11T15:05:03.202Z,10.10
2022-12-11T15:07:30.952Z,8.20
2022-12-11T15:09:58.479Z,10.00
2022-12-11T15:12:26.270Z,8.70
2022-12-11T15:14:57.211Z,10.90
2022-12-11T15:17:26.157Z,7.70
2022-12-11T15:20:07.397Z,15.20
2022-12-11T15:22:35.650Z,11.40
2022-12-11T15:25:04.119Z,10.50
2022-12-11T15:27:39.557Z,14.10
2022-12-11T15:30:26.885Z,9.40
2022-12-11T15:33:10.598Z,14.20
2022-12-11T15:35:40.536Z,14.30
2022-12-11T15:38:30.853Z,41.30
2022-12-11T15:40:58.477Z,6.30
2022-12-11T15:43:27.804Z,12.30
2022-12-11T15:45:55.498Z,7.80
2022-12-11T15:48:23.232Z,4.90
2022-12-11T15:50:50.834Z,6.80
2022-12-11T15:53:18.362Z,6.30
2022-12-11T15:55:46.471Z,6.00
2022-12-11T15:58:18.496Z,6.80
2022-12-11T16:00:46.808Z,7.00
2022-12-11T16:03:16.235Z,22.20
2022-12-11T16:05:44.838Z,57.10
2022-12-11T16:08:18.723Z,15.30
2022-12-11T16:10:47.443Z,30.60
2022-12-11T16:13:15.348Z,43.00
2022-12-11T16:15:44.946Z,17.10
2022-12-11T16:18:21.696Z,11.60
2022-12-11T16:20:51.182Z,10.50
2022-12-11T16:23:18.991Z,9.60
2022-12-11T16:25:47.236Z,15.20
2022-12-11T16:28:18.030Z,15.20
2022-12-11T16:30:45.689Z,25.70
2022-12-11T16:33:14.343Z,8.20
2022-12-11T16:35:42.842Z,18.20
2022-12-11T16:38:11.720Z,10.10
2022-12-11T16:40:39.321Z,7.30
2022-12-11T16:43:06.930Z,7.20
2022-12-11T16:45:34.546Z,7.40
2022-12-11T16:48:05.855Z,6.80
2022-12-11T16:50:33.351Z,8.30
2022-12-11T16:53:00.920Z,13.90
2022-12-11T16:55:28.422Z,11.70
2022-12-11T16:57:55.975Z,13.10
2022-12-11T17:00:23.852Z,8.20
2022-12-11T17:02:51.985Z,8.60
2022-12-11T17:05:19.972Z,9.20
2022-12-11T17:07:47.516Z,11.40
2022-12-11T17:10:15.087Z,9.30
2022-12-11T17:12:42.558Z,10.60
2022-12-11T17:15:10.655Z,10.20
2022-12-11T17:17:38.472Z,14.70
2022-12-11T17:20:06.803Z,13.90
2022-12-11T17:22:35.938Z,7.50
2022-12-11T17:25:03.900Z,18.60
2022-12-11T17:27:31.776Z,12.60
2022-12-11T17:29:59.370Z,8.70
2022-12-11T17:32:26.982Z,7.80
2022-12-11T17:34:54.738Z,10.00
2022-12-11T17:37:22.346Z,11.30
2022-12-11T17:39:50.077Z,17.60
2022-12-11T17:42:17.810Z,12.00
2022-12-11T17:44:45.539Z,14.20
2022-12-11T17:47:13.296Z,17.30
2022-12-11T17:49:41.410Z,14.30
2022-12-11T17:52:09.152Z,59.10
2022-12-11T17:54:39.268Z,9.20
2022-12-11T17:57:06.967Z,9.80
2022-12-11T17:59:34.640Z,11.80
2022-12-11T18:02:02.435Z,10.90
2022-12-11T18:04:30.069Z,6.90
2022-12-11T18:06:57.709Z,8.60
2022-12-11T18:09:25.327Z,10.10
2022-12-11T18:11:53.072Z,10.10
2022-12-11T18:14:20.702Z,8.40
2022-12-11T18:16:48.680Z,10.40
2022-12-11T18:19:16.648Z,10.40
2022-12-11T18:21:45.805Z,16.50
2022-12-11T18:24:13.337Z,10.80
2022-12-11T18:26:42.998Z,12.60
2022-12-11T18:29:10.989Z,13.00
2022-12-11T18:31:42.554Z,15.10
2022-12-11T18:34:11.311Z,10.80
2022-12-11T18:36:40.756Z,10.70
2022-12-11T18:39:08.743Z,10.90
2022-12-11T18:41:36.366Z,12.30
2022-12-11T18:44:09.541Z,16.00
2022-12-11T18:46:39.392Z,10.50
2022-12-11T18:49:07.540Z,12.10
2022-12-11T18:51:35.933Z,15.50
2022-12-11T18:54:03.997Z,8.70
2022-12-11T18:56:31.777Z,8.20
2022-12-11T18:58:59.376Z,8.10
2022-12-11T19:01:29.008Z,8.40
2022-12-11T19:04:04.227Z,8.00
2022-12-11T19:06:35.530Z,9.20
2022-12-11T19:09:05.136Z,8.20
2022-12-11T19:11:35.087Z,9.90
2022-12-11T19:14:05.272Z,8.10
2022-12-11T19:16:36.796Z,8.50
2022-12-11T19:19:09.881Z,9.20
2022-12-11T19:21:38.490Z,6.60
2022-12-11T19:24:08.901Z,8.10
2022-12-11T19:26:37.074Z,9.90
2022-12-11T19:29:05.203Z,9.00
2022-12-11T19:31:33.819Z,7.10
2022-12-11T19:34:02.867Z,6.30
2022-12-11T19:36:31.043Z,7.80
2022-12-11T19:39:01.884Z,9.80
2022-12-11T19:41:30.995Z,5.80
2022-12-11T19:43:59.557Z,7.30
2022-12-11T19:46:28.781Z,7.20
2022-12-11T19:48:58.053Z,7.00
2022-12-11T19:51:29.636Z,8.20
2022-12-11T19:53:57.315Z,6.30
2022-12-11T19:56:25.030Z,4.50
2022-12-11T19:58:52.688Z,8.70
2022-12-11T20:01:28.388Z,6.00
2022-12-11T20:03:59.599Z,5.30
2022-12-11T20:06:29.468Z,5.20
2022-12-11T20:08:57.607Z,6.70
2022-12-11T20:11:26.230Z,5.00
2022-12-11T20:13:55.578Z,5.50
2022-12-11T20:16:39.567Z,6.80
2022-12-11T20:19:11.067Z,6.30
2022-12-11T20:21:38.672Z,10.30
2022-12-11T20:24:06.483Z,5.30
2022-12-11T20:26:36.475Z,5.90
2022-12-11T20:29:07.355Z,5.80
2022-12-11T20:31:36.885Z,5.20
2022-12-11T20:34:05.009Z,4.60
2022-12-11T20:36:33.115Z,5.30
2022-12-11T20:39:00.874Z,6.60
2022-12-11T20:41:29.387Z,7.30
2022-12-11T20:43:57.082Z,5.60
2022-12-11T20:46:26.328Z,6.30
2022-12-11T20:48:55.886Z,13.00
2022-12-11T20:51:26.295Z,12.20
2022-12-11T20:53:58.734Z,10.00
2022-12-11T20:56:29.300Z,5.80
2022-12-11T20:58:58.443Z,6.40
2022-12-11T21:01:28.199Z,7.10
2022-12-11T21:03:56.393Z,6.10
2022-12-11T21:06:25.648Z,5.40
2022-12-11T21:08:53.333Z,6.70
2022-12-11T21:11:21.584Z,8.30
2022-12-11T21:13:49.490Z,8.50
2022-12-11T21:16:17.550Z,7.80
2022-12-11T21:18:46.529Z,7.70
2022-12-11T21:21:14.765Z,9.30
2022-12-11T21:23:42.362Z,6.60
2022-12-11T21:26:10.429Z,7.90
2022-12-11T21:28:38.076Z,11.00
2022-12-11T21:31:08.888Z,9.40
2022-12-11T21:33:36.543Z,6.40
2022-12-11T21:36:06.169Z,6.80
2022-12-11T21:38:33.761Z,7.20
2022-12-11T21:41:09.844Z,7.40
2022-12-11T21:43:42.757Z,5.20
2022-12-11T21:46:27.664Z,6.10
2022-12-11T21:48:55.394Z,9.60
2022-12-11T21:51:35.737Z,6.70
2022-12-11T21:54:06.878Z,6.90
2022-12-11T21:56:34.525Z,7.00
2022-12-11T21:59:02.227Z,6.60
2022-12-11T22:01:40.856Z,6.80
2022-12-11T22:04:10.567Z,6.10
2022-12-11T22:06:41.915Z,6.20
2022-12-11T22:09:12.325Z,6.20
2022-12-11T22:11:41.799Z,5.10
2022-12-11T22:14:13.280Z,4.80
2022-12-11T22:16:41.782Z,5.20
2022-12-11T22:19:09.628Z,6.30
2022-12-11T22:21:37.953Z,5.00
2022-12-11T22:24:05.630Z,6.40
2022-12-11T22:26:33.193Z,4.90
2022-12-11T22:29:00.717Z,8.30
2022-12-11T22:31:28.251Z,7.50
2022-12-11T22:33:56.338Z,7.00
2022-12-11T22:36:26.813Z,6.50
2022-12-11T22:38:55.305Z,5.80
2022-12-11T22:41:29.548Z,8.80
2022-12-11T22:43:58.381Z,6.90
2022-12-11T22:46:28.876Z,7.10
2022-12-11T22:48:58.116Z,7.40
2022-12-11T22:51:25.636Z,9.60
2022-12-11T22:53:53.115Z,8.50
2022-12-11T22:56:21.069Z,6.30
2022-12-11T22:58:48.609Z,7.90
2022-12-11T23:01:20.174Z,7.00
2022-12-11T23:03:47.830Z,6.80
2022-12-11T23:06:18.284Z,5.50
2022-12-11T23:08:46.148Z,8.80
2022-12-11T23:11:15.105Z,6.10
2022-12-11T23:13:43.140Z,5.60
2022-12-11T23:16:11.819Z,8.20
2022-12-11T23:18:40.295Z,5.60
2022-12-11T23:21:09.866Z,6.00
2022-12-11T23:23:37.468Z,6.60
2022-12-11T23:26:06.833Z,6.00
2022-12-11T23:28:34.370Z,6.10
2022-12-11T23:31:02.069Z,4.40
2022-12-11T23:33:29.631Z,6.70
2022-12-11T23:35:58.186Z,5.40
2022-12-11T23:38:25.902Z,5.80
2022-12-11T23:40:53.747Z,6.70
2022-12-11T23:43:22.174Z,4.90
2022-12-11T23:45:49.984Z,4.50
2022-12-11T23:48:18.469Z,4.20
2022-12-11T23:50:46.273Z,7.40
2022-12-11T23:53:13.822Z,5.50
2022-12-11T23:55:43.707Z,6.10
2022-12-11T23:58:11.937Z,4.60
